createdAt,value
2022-10-06T00:01:32.150Z,13.23
2022-10-06T00:04:00.781Z,13.22
2022-10-06T00:06:29.957Z,13.21
2022-10-06T00:08:58.681Z,13.19
2022-10-06T00:11:27.074Z,13.17
2022-10-06T00:13:55.064Z,13.16
2022-10-06T00:16:24.700Z,13.14
2022-10-06T00:18:53.672Z,13.12
2022-10-06T00:21:21.363Z,13.11
2022-10-06T00:23:50.138Z,13.10
2022-10-06T00:26:18.070Z,13.08
2022-10-06T00:28:48.978Z,13.07
2022-10-06T00:31:20.833Z,13.06
2022-10-06T00:33:50.516Z,13.04
2022-10-06T00:36:21.213Z,13.02
2022-10-06T00:38:49.510Z,13.01
2022-10-06T00:41:19.590Z,12.99
2022-10-06T00:43:57.926Z,12.98
2022-10-06T00:46:46.294Z,12.96
2022-10-06T00:49:24.562Z,12.94
2022-10-06T00:52:03.060Z,12.90
2022-10-06T00:54:33.591Z,12.88
2022-10-06T00:57:04.432Z,12.86
2022-10-06T00:59:33.583Z,12.83
2022-10-06T01:02:04.622Z,12.81
2022-10-06T01:04:38.490Z,12.80
2022-10-06T01:07:08.679Z,12.77
2022-10-06T01:09:38.107Z,12.76
2022-10-06T01:12:08.816Z,12.73
2022-10-06T01:14:39.293Z,12.72
2022-10-06T01:17:12.820Z,12.70
2022-10-06T01:20:15.036Z,12.68
2022-10-06T01:22:47.683Z,12.67
2022-10-06T01:25:18.502Z,12.66
2022-10-06T01:27:54.886Z,12.65
2022-10-06T01:30:52.909Z,12.64
2022-10-06T01:33:22.621Z,12.63
2022-10-06T01:35:53.126Z,12.62
2022-10-06T01:38:22.299Z,12.61
2022-10-06T01:40:54.095Z,12.59
2022-10-06T01:43:22.144Z,12.59
2022-10-06T01:45:56.645Z,12.57
2022-10-06T01:48:24.389Z,12.57
2022-10-06T01:50:54.789Z,12.57
2022-10-06T01:53:23.501Z,12.56
2022-10-06T01:55:51.397Z,12.55
2022-10-06T01:58:19.101Z,12.54
2022-10-06T02:00:46.911Z,12.53
2022-10-06T02:03:14.921Z,12.52
2022-10-06T02:05:43.730Z,12.51
2022-10-06T02:08:11.670Z,12.50
2022-10-06T02:10:40.791Z,12.49
2022-10-06T02:13:10.827Z,12.48
2022-10-06T02:15:39.581Z,12.47
2022-10-06T02:18:09.902Z,12.46
2022-10-06T02:20:37.598Z,12.44
2022-10-06T02:23:06.613Z,12.42
2022-10-06T02:25:34.485Z,12.41
2022-10-06T02:28:02.446Z,12.40
2022-10-06T02:30:30.427Z,12.39
2022-10-06T02:32:59.435Z,12.38
2022-10-06T02:35:27.134Z,12.37
2022-10-06T02:37:54.825Z,12.36
2022-10-06T02:40:24.293Z,12.36
2022-10-06T02:42:53.992Z,12.33
2022-10-06T02:45:22.738Z,12.32
2022-10-06T02:47:50.662Z,12.31
2022-10-06T02:50:18.556Z,12.29
2022-10-06T02:52:47.724Z,12.27
2022-10-06T02:55:15.501Z,12.26
2022-10-06T02:57:43.510Z,12.24
2022-10-06T03:00:13.053Z,12.23
2022-10-06T03:02:40.795Z,12.20
2022-10-06T03:05:09.512Z,12.19
2022-10-06T03:07:38.720Z,12.17
2022-10-06T03:10:08.890Z,12.15
2022-10-06T03:12:36.737Z,12.14
2022-10-06T03:15:07.384Z,12.13
2022-10-06T03:17:35.074Z,12.12
2022-10-06T03:20:02.758Z,12.10
2022-10-06T03:22:31.234Z,12.08
2022-10-06T03:25:00.337Z,12.06
2022-10-06T03:27:28.089Z,12.05
2022-10-06T03:29:56.004Z,12.04
2022-10-06T03:32:25.116Z,12.02
2022-10-06T03:34:54.524Z,12.01
2022-10-06T03:37:22.951Z,11.99
2022-10-06T03:39:52.946Z,11.98
2022-10-06T03:42:20.739Z,11.97
2022-10-06T03:44:48.642Z,11.96
2022-10-06T03:47:17.645Z,11.95
2022-10-06T03:49:48.929Z,11.94
2022-10-06T03:52:16.866Z,11.95
2022-10-06T03:54:46.691Z,11.95
2022-10-06T03:57:16.291Z,11.94
2022-10-06T03:59:46.150Z,11.95
2022-10-06T04:02:13.886Z,11.96
2022-10-06T04:04:42.818Z,11.96
2022-10-06T04:07:11.789Z,11.96
2022-10-06T04:09:40.715Z,11.97
2022-10-06T04:12:08.424Z,11.97
2022-10-06T04:14:36.140Z,11.98
2022-10-06T04:17:04.059Z,11.98
2022-10-06T04:19:33.005Z,11.99
2022-10-06T04:22:00.961Z,12.01
2022-10-06T04:24:30.112Z,12.01
2022-10-06T04:27:18.019Z,12.02
2022-10-06T04:29:47.062Z,12.03
2022-10-06T04:32:17.154Z,12.04
2022-10-06T04:34:44.892Z,12.04
2022-10-06T04:37:12.540Z,12.04
2022-10-06T04:39:42.170Z,12.04
2022-10-06T04:42:10.596Z,12.03
2022-10-06T04:44:38.537Z,12.03
2022-10-06T04:47:07.477Z,12.02
2022-10-06T04:49:35.660Z,12.02
2022-10-06T04:52:04.680Z,12.03
2022-10-06T04:54:34.046Z,12.03
2022-10-06T04:57:02.928Z,12.02
2022-10-06T04:59:51.879Z,12.03
2022-10-06T05:02:21.639Z,12.02
2022-10-06T05:04:49.485Z,12.02
2022-10-06T05:07:17.531Z,12.03
2022-10-06T05:09:45.606Z,12.03
2022-10-06T05:12:13.774Z,12.03
2022-10-06T05:14:41.668Z,12.04
2022-10-06T05:17:09.425Z,12.05
2022-10-06T05:19:38.521Z,12.05
2022-10-06T05:22:06.777Z,12.06
2022-10-06T05:24:35.293Z,12.07
2022-10-06T05:27:04.038Z,12.09
2022-10-06T05:29:32.092Z,12.11
2022-10-06T05:31:59.849Z,12.13
2022-10-06T05:34:27.634Z,12.16
2022-10-06T05:36:55.321Z,12.18
2022-10-06T05:39:23.246Z,12.20
2022-10-06T05:41:53.459Z,12.23
2022-10-06T05:44:22.620Z,12.23
2022-10-06T05:46:52.669Z,12.25
2022-10-06T05:49:25.246Z,12.27
2022-10-06T05:51:54.548Z,12.29
2022-10-06T05:54:22.533Z,12.30
2022-10-06T05:56:52.371Z,12.32
2022-10-06T05:59:20.490Z,12.34
2022-10-06T06:01:48.683Z,12.37
2022-10-06T06:04:18.330Z,12.40
2022-10-06T06:06:50.015Z,12.44
2022-10-06T06:09:21.377Z,12.49
2022-10-06T06:11:54.693Z,12.54
2022-10-06T06:14:42.814Z,12.61
2022-10-06T06:17:12.824Z,12.70
2022-10-06T06:19:41.831Z,12.76
2022-10-06T06:22:10.864Z,12.82
2022-10-06T06:24:38.591Z,12.86
2022-10-06T06:27:06.516Z,12.89
2022-10-06T06:29:35.904Z,12.92
2022-10-06T06:32:04.839Z,12.93
2022-10-06T06:34:32.740Z,12.95
2022-10-06T06:37:06.912Z,12.98
2022-10-06T06:39:37.307Z,13.01
2022-10-06T06:42:08.888Z,13.03
2022-10-06T06:44:37.464Z,13.07
2022-10-06T06:47:05.156Z,13.10
2022-10-06T06:49:32.846Z,13.13
2022-10-06T06:52:04.325Z,13.16
2022-10-06T06:54:32.777Z,13.20
2022-10-06T06:57:01.612Z,13.24
2022-10-06T06:59:35.322Z,13.27
2022-10-06T07:02:04.465Z,13.32
2022-10-06T07:04:33.412Z,13.36
2022-10-06T07:07:02.596Z,13.41
2022-10-06T07:09:30.486Z,13.46
2022-10-06T07:11:58.381Z,13.51
2022-10-06T07:14:26.095Z,13.57
2022-10-06T07:17:13.868Z,13.63
2022-10-06T07:20:01.651Z,13.70
2022-10-06T07:22:49.038Z,13.77
2022-10-06T07:25:28.984Z,13.85
2022-10-06T07:27:56.788Z,13.94
2022-10-06T07:30:29.057Z,14.02
2022-10-06T07:32:57.010Z,14.10
2022-10-06T07:35:26.022Z,14.18
2022-10-06T07:37:54.200Z,14.28
2022-10-06T07:40:23.900Z,14.36
2022-10-06T07:42:54.133Z,14.45
2022-10-06T07:45:42.155Z,14.53
2022-10-06T07:48:16.291Z,14.62
2022-10-06T07:50:49.165Z,14.71
2022-10-06T07:53:19.140Z,14.80
2022-10-06T07:55:50.741Z,14.88
2022-10-06T07:58:24.036Z,14.96
2022-10-06T08:00:53.734Z,15.04
2022-10-06T08:03:23.213Z,15.13
2022-10-06T08:05:58.660Z,15.21
2022-10-06T08:08:31.285Z,15.29
2022-10-06T08:11:01.907Z,15.37
2022-10-06T08:13:34.871Z,15.46
2022-10-06T08:16:06.906Z,15.55
2022-10-06T08:18:45.934Z,15.64
2022-10-06T08:21:29.884Z,15.74
2022-10-06T08:24:00.941Z,15.84
2022-10-06T08:26:31.261Z,15.96
2022-10-06T08:29:03.971Z,16.12
2022-10-06T08:31:33.400Z,16.47
2022-10-06T08:34:02.867Z,16.91
2022-10-06T08:36:32.765Z,17.37
2022-10-06T08:39:01.874Z,17.86
2022-10-06T08:41:32.626Z,18.31
2022-10-06T08:44:20.606Z,18.75
2022-10-06T08:47:14.943Z,19.29
2022-10-06T08:49:47.254Z,19.69
2022-10-06T08:52:52.840Z,20.04
2022-10-06T08:55:55.524Z,20.42
2022-10-06T08:58:23.453Z,20.67
2022-10-06T09:00:58.113Z,20.85
2022-10-06T09:03:30.131Z,21.07
2022-10-06T09:06:13.531Z,21.27
2022-10-06T09:08:53.965Z,21.49
2022-10-06T09:11:44.050Z,21.73
2022-10-06T09:14:38.575Z,22.05
2022-10-06T09:17:14.340Z,22.63
2022-10-06T09:19:59.151Z,23.77
2022-10-06T09:22:32.996Z,25.97
2022-10-06T09:25:20.445Z,27.74
2022-10-06T09:28:04.292Z,27.91
2022-10-06T09:30:32.950Z,27.23
2022-10-06T09:33:05.679Z,26.66
2022-10-06T09:35:33.764Z,26.16
2022-10-06T09:38:08.958Z,25.79
2022-10-06T09:40:54.621Z,25.49
2022-10-06T09:43:29.401Z,25.27
2022-10-06T09:46:29.145Z,25.05
2022-10-06T09:49:18.529Z,24.73
2022-10-06T09:52:19.442Z,24.44
2022-10-06T09:55:23.953Z,24.16
2022-10-06T09:57:56.238Z,23.84
2022-10-06T10:00:38.615Z,23.63
2022-10-06T10:03:12.288Z,23.40
2022-10-06T10:05:48.040Z,23.19
2022-10-06T10:08:24.170Z,22.98
2022-10-06T10:11:32.083Z,22.78
2022-10-06T10:14:00.875Z,22.54
2022-10-06T10:16:35.664Z,22.32
2022-10-06T10:19:06.419Z,22.09
2022-10-06T10:21:37.138Z,21.96
2022-10-06T10:24:15.636Z,21.89
2022-10-06T10:27:07.372Z,21.79
2022-10-06T10:29:45.669Z,21.71
2022-10-06T10:32:18.404Z,21.68
2022-10-06T10:35:04.304Z,21.61
2022-10-06T10:37:45.489Z,21.56
2022-10-06T10:40:29.540Z,21.55
2022-10-06T10:43:13.545Z,21.49
2022-10-06T10:45:50.172Z,21.45
2022-10-06T10:49:02.244Z,21.42
2022-10-06T10:51:37.426Z,21.42
2022-10-06T10:54:20.924Z,21.36
2022-10-06T10:56:52.734Z,21.28
2022-10-06T10:59:24.552Z,21.19
2022-10-06T11:02:02.862Z,21.09
2022-10-06T11:04:32.191Z,21.04
2022-10-06T11:07:30.502Z,21.00
2022-10-06T11:10:18.621Z,20.99
2022-10-06T11:13:06.317Z,21.05
2022-10-06T11:15:52.897Z,21.14
2022-10-06T11:18:42.028Z,21.14
2022-10-06T11:21:46.431Z,21.11
2022-10-06T11:24:43.159Z,21.05
2022-10-06T11:27:23.443Z,20.97
2022-10-06T11:30:26.449Z,20.87
2022-10-06T11:33:30.415Z,20.83
2022-10-06T11:36:02.504Z,20.80
2022-10-06T11:38:42.501Z,20.82
2022-10-06T11:41:21.250Z,20.85
2022-10-06T11:44:00.719Z,20.88
2022-10-06T11:46:52.543Z,20.89
2022-10-06T11:49:30.422Z,20.95
2022-10-06T11:52:08.231Z,21.04
2022-10-06T11:54:40.186Z,21.12
2022-10-06T11:57:30.273Z,21.17
2022-10-06T12:00:04.846Z,21.22
2022-10-06T12:02:33.614Z,21.24
2022-10-06T12:08:09.214Z,21.30
2022-10-06T12:10:50.015Z,21.31
2022-10-06T12:14:26.550Z,21.31
2022-10-06T12:19:50.948Z,21.28
2022-10-06T12:22:31.577Z,21.23
2022-10-06T12:25:32.971Z,21.21
2022-10-06T12:28:20.664Z,21.17
2022-10-06T12:31:17.978Z,21.14
2022-10-06T12:33:48.956Z,21.09
2022-10-06T12:36:30.265Z,21.06
2022-10-06T12:39:07.200Z,21.06
2022-10-06T12:42:07.632Z,21.05
2022-10-06T12:44:43.528Z,21.06
2022-10-06T12:47:31.167Z,21.08
2022-10-06T12:50:27.726Z,21.08
2022-10-06T12:53:09.806Z,21.09
2022-10-06T12:55:53.493Z,21.08
2022-10-06T12:58:32.497Z,21.08
2022-10-06T13:01:12.644Z,21.08
2022-10-06T13:03:48.348Z,21.06
2022-10-06T13:06:23.442Z,21.05
2022-10-06T13:09:13.919Z,21.03
2022-10-06T13:11:41.973Z,21.02
2022-10-06T13:14:14.636Z,21.00
2022-10-06T13:16:48.203Z,21.02
2022-10-06T13:19:25.901Z,21.05
2022-10-06T13:21:55.689Z,21.05
2022-10-06T13:24:28.340Z,21.08
2022-10-06T13:26:57.156Z,21.09
2022-10-06T13:29:28.588Z,21.12
2022-10-06T13:31:56.969Z,21.15
2022-10-06T13:34:44.586Z,21.14
2022-10-06T13:37:16.776Z,21.13
2022-10-06T13:39:45.865Z,21.15
2022-10-06T13:42:21.501Z,21.16
2022-10-06T13:45:01.864Z,21.16
2022-10-06T13:47:30.920Z,21.16
2022-10-06T13:50:07.798Z,21.15
2022-10-06T13:52:44.400Z,21.12
2022-10-06T13:55:23.178Z,21.11
2022-10-06T13:58:03.453Z,21.09
2022-10-06T14:01:01.349Z,21.06
2022-10-06T14:06:19.039Z,21.01
2022-10-06T14:08:57.382Z,20.95
2022-10-06T14:11:29.280Z,20.90
2022-10-06T14:14:08.488Z,20.85
2022-10-06T14:16:36.180Z,20.80
2022-10-06T14:19:05.972Z,20.75
2022-10-06T14:21:41.962Z,20.70
2022-10-06T14:24:15.889Z,20.67
2022-10-06T14:26:46.554Z,20.62
2022-10-06T14:29:14.560Z,20.58
2022-10-06T14:31:44.797Z,20.55
2022-10-06T14:34:18.065Z,20.51
2022-10-06T14:36:51.366Z,20.47
2022-10-06T14:39:20.052Z,20.44
2022-10-06T14:41:47.858Z,20.39
2022-10-06T14:44:16.928Z,20.37
2022-10-06T14:46:48.937Z,20.34
2022-10-06T14:49:18.282Z,20.34
2022-10-06T14:51:47.478Z,20.33
2022-10-06T14:54:16.076Z,20.32
2022-10-06T14:56:43.808Z,20.31
2022-10-06T14:59:18.088Z,20.31
2022-10-06T15:01:50.109Z,20.32
2022-10-06T15:04:25.927Z,20.33
2022-10-06T15:07:14.598Z,20.32
2022-10-06T15:09:43.384Z,20.31
2022-10-06T15:12:12.162Z,20.29
2022-10-06T15:14:40.908Z,20.25
2022-10-06T15:17:11.263Z,20.20
2022-10-06T15:19:41.379Z,20.14
2022-10-06T15:22:11.296Z,20.09
2022-10-06T15:24:39.222Z,20.04
2022-10-06T15:27:28.847Z,19.98
2022-10-06T15:29:58.708Z,19.90
2022-10-06T15:32:27.535Z,19.84
2022-10-06T15:34:56.451Z,19.78
2022-10-06T15:37:24.131Z,19.71
2022-10-06T15:39:52.967Z,19.65
2022-10-06T15:42:25.351Z,19.58
2022-10-06T15:44:54.359Z,19.53
2022-10-06T15:47:25.396Z,19.47
2022-10-06T15:49:53.328Z,19.43
2022-10-06T15:52:23.893Z,19.39
2022-10-06T15:54:53.081Z,19.34
2022-10-06T15:57:21.559Z,19.30
2022-10-06T15:59:51.898Z,19.25
2022-10-06T16:02:22.527Z,19.21
2022-10-06T16:05:15.157Z,19.17
2022-10-06T16:07:44.184Z,19.13
2022-10-06T16:10:13.456Z,19.09
2022-10-06T16:12:41.422Z,19.05
2022-10-06T16:15:11.674Z,19.02
2022-10-06T16:17:39.741Z,18.98
2022-10-06T16:20:09.628Z,18.95
2022-10-06T16:22:37.857Z,18.90
2022-10-06T16:25:08.668Z,18.86
2022-10-06T16:27:36.573Z,18.82
2022-10-06T16:30:06.246Z,18.77
2022-10-06T16:32:34.215Z,18.74
2022-10-06T16:35:03.229Z,18.70
2022-10-06T16:37:33.537Z,18.66
2022-10-06T16:40:01.231Z,18.63
2022-10-06T16:42:29.056Z,18.60
2022-10-06T16:44:56.796Z,18.57
2022-10-06T16:47:24.511Z,18.54
2022-10-06T16:49:52.293Z,18.50
2022-10-06T16:52:20.040Z,18.47
2022-10-06T16:54:49.083Z,18.44
2022-10-06T16:57:16.931Z,18.41
2022-10-06T16:59:47.044Z,18.36
2022-10-06T17:02:16.090Z,18.35
2022-10-06T17:04:44.093Z,18.33
2022-10-06T17:07:13.144Z,18.30
2022-10-06T17:09:51.109Z,18.28
2022-10-06T17:12:29.846Z,18.25
2022-10-06T17:14:58.511Z,18.20
2022-10-06T17:17:26.264Z,18.17
2022-10-06T17:19:54.225Z,18.14
2022-10-06T17:22:23.113Z,18.11
2022-10-06T17:24:51.954Z,18.09
2022-10-06T17:27:21.642Z,18.06
2022-10-06T17:29:49.652Z,18.03
2022-10-06T17:32:18.581Z,18.00
2022-10-06T17:34:46.277Z,17.96
2022-10-06T17:37:16.390Z,17.92
2022-10-06T17:39:47.109Z,17.88
2022-10-06T17:42:17.450Z,17.83
2022-10-06T17:44:46.194Z,17.78
2022-10-06T17:47:13.935Z,17.73
2022-10-06T17:49:41.617Z,17.68
2022-10-06T17:52:09.723Z,17.63
2022-10-06T17:54:37.496Z,17.58
2022-10-06T17:57:08.837Z,17.54
2022-10-06T17:59:36.520Z,17.50
2022-10-06T18:02:08.491Z,17.46
2022-10-06T18:04:39.393Z,17.41
2022-10-06T18:07:10.492Z,17.38
2022-10-06T18:10:01.653Z,17.34
2022-10-06T18:12:36.331Z,17.31
2022-10-06T18:15:06.008Z,17.29
2022-10-06T18:17:35.243Z,17.26
2022-10-06T18:20:09.194Z,17.24
2022-10-06T18:22:36.876Z,17.22
2022-10-06T18:25:06.531Z,17.21
2022-10-06T18:27:34.423Z,17.20
2022-10-06T18:30:05.386Z,17.19
2022-10-06T18:38:12.646Z,17.15
2022-10-06T18:40:40.581Z,17.13
2022-10-06T18:43:09.128Z,17.09
2022-10-06T18:45:57.184Z,17.06
2022-10-06T18:48:58.793Z,17.03
2022-10-06T18:51:33.649Z,17.00
2022-10-06T18:54:14.113Z,16.97
2022-10-06T18:56:51.313Z,16.95
2022-10-06T18:59:23.438Z,16.92
2022-10-06T19:01:51.305Z,16.89
2022-10-06T19:04:23.242Z,16.86
2022-10-06T19:06:54.347Z,16.83
2022-10-06T19:09:28.357Z,16.81
2022-10-06T19:11:58.043Z,16.79
2022-10-06T19:14:34.737Z,16.77
2022-10-06T19:17:14.375Z,16.73
2022-10-06T19:19:45.634Z,16.70
2022-10-06T19:22:16.265Z,16.68
2022-10-06T19:24:49.446Z,16.65
2022-10-06T19:27:24.466Z,16.62
2022-10-06T19:29:55.828Z,16.59
2022-10-06T19:32:32.907Z,16.55
2022-10-06T19:35:06.347Z,16.52
2022-10-06T19:37:38.352Z,16.52
2022-10-06T19:40:09.419Z,16.50
2022-10-06T19:42:50.705Z,16.49
2022-10-06T19:45:20.510Z,16.46
2022-10-06T19:47:51.467Z,16.44
2022-10-06T19:50:20.432Z,16.42
2022-10-06T19:52:48.129Z,16.40
2022-10-06T19:55:15.854Z,16.39
2022-10-06T19:57:43.989Z,16.38
2022-10-06T20:00:12.793Z,16.37
2022-10-06T20:02:46.462Z,16.35
2022-10-06T20:05:16.329Z,16.33
2022-10-06T20:07:47.396Z,16.31
2022-10-06T20:10:16.843Z,16.29
2022-10-06T20:12:46.288Z,16.27
2022-10-06T20:15:15.479Z,16.25
2022-10-06T20:17:45.700Z,16.24
2022-10-06T20:20:15.800Z,16.21
2022-10-06T20:22:43.787Z,16.19
2022-10-06T20:25:12.990Z,16.18
2022-10-06T20:27:40.903Z,16.16
2022-10-06T20:30:11.994Z,16.14
2022-10-06T20:32:41.248Z,16.12
2022-10-06T20:35:09.871Z,16.10
2022-10-06T20:37:42.217Z,16.08
2022-10-06T20:40:29.497Z,16.07
2022-10-06T20:43:00.689Z,16.04
2022-10-06T20:45:30.129Z,16.02
2022-10-06T20:48:01.069Z,16.02
2022-10-06T20:50:31.193Z,16.00
2022-10-06T20:52:59.508Z,15.99
2022-10-06T20:55:28.572Z,15.97
2022-10-06T20:57:57.905Z,15.96
2022-10-06T21:00:25.884Z,15.94
2022-10-06T21:02:55.228Z,15.94
2022-10-06T21:05:23.587Z,15.92
2022-10-06T21:07:51.830Z,15.91
2022-10-06T21:10:19.837Z,15.91
2022-10-06T21:12:48.815Z,15.89
2022-10-06T21:15:17.429Z,15.87
2022-10-06T21:17:49.237Z,15.87
2022-10-06T21:20:18.059Z,15.86
2022-10-06T21:22:45.994Z,15.86
2022-10-06T21:25:13.708Z,15.84
2022-10-06T21:27:41.907Z,15.83
2022-10-06T21:30:13.192Z,15.82
2022-10-06T21:32:43.908Z,15.81
2022-10-06T21:35:11.857Z,15.80
2022-10-06T21:37:42.583Z,15.80
2022-10-06T21:40:11.573Z,15.78
2022-10-06T21:42:41.871Z,15.77
2022-10-06T21:45:11.427Z,15.75
2022-10-06T21:47:39.399Z,15.74
2022-10-06T21:50:09.215Z,15.73
2022-10-06T21:52:37.240Z,15.72
2022-10-06T21:55:06.954Z,15.72
2022-10-06T21:57:34.965Z,15.70
2022-10-06T22:00:02.964Z,15.68
2022-10-06T22:02:32.916Z,15.66
2022-10-06T22:05:02.318Z,15.63
2022-10-06T22:07:30.269Z,15.62
2022-10-06T22:09:58.241Z,15.60
2022-10-06T22:12:27.410Z,15.59
2022-10-06T22:15:00.162Z,15.57
2022-10-06T22:17:28.210Z,15.56
2022-10-06T22:19:56.222Z,15.54
2022-10-06T22:22:26.945Z,15.52
2022-10-06T22:24:56.227Z,15.51
2022-10-06T22:27:26.656Z,15.49
2022-10-06T22:29:54.829Z,15.48
2022-10-06T22:32:24.640Z,15.45
2022-10-06T22:34:53.326Z,15.43
2022-10-06T22:37:21.283Z,15.42
2022-10-06T22:39:49.333Z,15.40
2022-10-06T22:42:17.406Z,15.39
2022-10-06T22:44:45.481Z,15.38
2022-10-06T22:47:15.830Z,15.36
2022-10-06T22:49:43.568Z,15.32
2022-10-06T22:52:11.524Z,15.29
2022-10-06T22:54:39.493Z,15.25
2022-10-06T22:57:07.472Z,15.21
2022-10-06T22:59:35.425Z,15.18
2022-10-06T23:02:03.378Z,15.15
2022-10-06T23:04:34.478Z,15.13
2022-10-06T23:07:02.615Z,15.11
2022-10-06T23:09:30.581Z,15.09
2022-10-06T23:11:58.527Z,15.06
2022-10-06T23:14:26.460Z,15.03
2022-10-06T23:16:55.997Z,14.99
2022-10-06T23:19:25.353Z,14.96
2022-10-06T23:21:53.287Z,14.92
2022-10-06T23:24:21.196Z,14.88
2022-10-06T23:26:49.172Z,14.86
2022-10-06T23:29:17.428Z,14.83
2022-10-06T23:31:45.781Z,14.80
2022-10-06T23:34:14.909Z,14.78
2022-10-06T23:36:44.312Z,14.74
2022-10-06T23:39:12.283Z,14.70
2022-10-06T23:41:43.527Z,14.65
2022-10-06T23:44:11.473Z,14.59
2022-10-06T23:46:39.420Z,14.55
2022-10-06T23:49:07.423Z,14.49
2022-10-06T23:51:35.302Z,14.43
2022-10-06T23:54:03.354Z,14.38
2022-10-06T23:56:31.416Z,14.31
2022-10-06T23:58:59.418Z,14.25
